createdAt,value
2022-09-09T00:00:25.261Z,100167.20
2022-09-09T00:03:22.136Z,100161.90
2022-09-09T00:06:02.769Z,100158.67
2022-09-09T00:08:48.390Z,100158.76
2022-09-09T00:11:31.469Z,100158.31
2022-09-09T00:14:12.439Z,100157.88
2022-09-09T00:16:51.699Z,100160.50
2022-09-09T00:19:31.509Z,100161.77
2022-09-09T00:22:17.387Z,100164.82
2022-09-09T00:24:54.483Z,100150.77
2022-09-09T00:27:33.333Z,100165.67
2022-09-09T00:30:17.273Z,100162.90
2022-09-09T00:32:50.060Z,100162.79
2022-09-09T00:35:27.081Z,100161.30
2022-09-09T00:38:03.817Z,100158.85
2022-09-09T00:40:41.298Z,100164.11
2022-09-09T00:43:32.434Z,100161.80
2022-09-09T00:46:44.516Z,100166.89
2022-09-09T00:49:28.749Z,100156.20
2022-09-09T00:52:11.735Z,100147.19
2022-09-09T00:54:53.947Z,100167.80
2022-09-09T00:57:32.270Z,100164.67
2022-09-09T01:00:22.381Z,100164.48
2022-09-09T01:03:12.654Z,100161.29
2022-09-09T01:05:52.320Z,100162.73
2022-09-09T01:08:45.528Z,100170.20
2022-09-09T01:11:27.020Z,100171.44
2022-09-09T01:14:12.894Z,100178.04
2022-09-09T01:16:50.002Z,100180.16
2022-09-09T01:19:36.052Z,100183.31
2022-09-09T01:22:18.029Z,100185.41
2022-09-09T01:25:11.025Z,100185.50
2022-09-09T01:28:01.692Z,100187.20
2022-09-09T01:30:35.464Z,100189.90
2022-09-09T01:33:07.908Z,100192.62
2022-09-09T01:35:49.290Z,100197.31
2022-09-09T01:38:22.850Z,100198.30
2022-09-09T01:40:56.814Z,100197.73
2022-09-09T01:43:36.181Z,100200.48
2022-09-09T01:46:08.501Z,100198.98
2022-09-09T01:48:42.888Z,100198.02
2022-09-09T01:51:16.295Z,100201.56
2022-09-09T01:53:49.071Z,100201.32
2022-09-09T01:56:36.118Z,100201.36
2022-09-09T01:59:20.945Z,100187.13
2022-09-09T02:02:08.575Z,100202.46
2022-09-09T02:04:46.700Z,100205.53
2022-09-09T02:07:40.208Z,100212.92
2022-09-09T02:10:25.081Z,100210.02
2022-09-09T02:13:11.004Z,100214.63
2022-09-09T02:15:49.684Z,100210.09
2022-09-09T02:18:28.244Z,100215.86
2022-09-09T02:21:01.801Z,100209.13
2022-09-09T02:23:36.669Z,100215.09
2022-09-09T02:26:14.361Z,100217.56
2022-09-09T02:28:48.404Z,100217.90
2022-09-09T02:31:24.522Z,100220.84
2022-09-09T02:34:01.959Z,100224.52
2022-09-09T02:36:36.356Z,100225.91
2022-09-09T02:39:12.309Z,100229.08
2022-09-09T02:41:45.829Z,100227.17
2022-09-09T02:44:20.115Z,100223.71
2022-09-09T02:47:18.473Z,100222.54
2022-09-09T02:50:05.663Z,100224.36
2022-09-09T02:52:46.959Z,100226.66
2022-09-09T02:55:26.850Z,100233.23
2022-09-09T02:58:01.532Z,100234.73
2022-09-09T03:00:34.296Z,100240.49
2022-09-09T03:03:07.224Z,100242.23
2022-09-09T03:05:39.924Z,100240.34
2022-09-09T03:08:12.787Z,100243.86
2022-09-09T03:10:45.314Z,100244.50
2022-09-09T03:13:20.317Z,100249.88
2022-09-09T03:15:52.879Z,100248.05
2022-09-09T03:18:26.264Z,100243.86
2022-09-09T03:21:00.719Z,100250.37
2022-09-09T03:23:33.203Z,100236.05
2022-09-09T03:26:06.749Z,100250.44
2022-09-09T03:28:46.174Z,100248.96
2022-09-09T03:31:21.006Z,100259.11
2022-09-09T03:33:53.323Z,100254.42
2022-09-09T03:36:27.302Z,100264.08
2022-09-09T03:39:00.352Z,100266.92
2022-09-09T03:41:33.531Z,100264.89
2022-09-09T03:44:06.756Z,100266.19
2022-09-09T03:46:42.762Z,100265.66
2022-09-09T03:49:16.403Z,100265.02
2022-09-09T03:51:48.857Z,100269.29
2022-09-09T03:54:21.719Z,100271.86
2022-09-09T03:56:54.763Z,100273.15
2022-09-09T03:59:31.143Z,100276.82
2022-09-09T04:02:03.864Z,100279.05
2022-09-09T04:04:36.107Z,100283.70
2022-09-09T04:07:08.512Z,100285.91
2022-09-09T04:09:40.886Z,100284.29
2022-09-09T04:12:14.307Z,100286.20
2022-09-09T04:14:47.260Z,100281.70
2022-09-09T04:17:19.590Z,100287.50
2022-09-09T04:19:51.814Z,100285.47
2022-09-09T04:22:25.256Z,100282.56
2022-09-09T04:24:57.978Z,100284.16
2022-09-09T04:27:30.798Z,100287.59
2022-09-09T04:30:03.881Z,100286.80
2022-09-09T04:32:37.954Z,100292.55
2022-09-09T04:35:11.534Z,100287.58
2022-09-09T04:37:43.838Z,100294.52
2022-09-09T04:40:17.096Z,100282.27
2022-09-09T04:42:50.691Z,100289.45
2022-09-09T04:45:22.844Z,100264.30
2022-09-09T04:47:55.377Z,100295.95
2022-09-09T04:50:27.860Z,100302.00
2022-09-09T04:53:05.898Z,100303.79
2022-09-09T04:55:38.710Z,100289.84
2022-09-09T04:58:11.800Z,100305.98
2022-09-09T05:00:44.660Z,100306.24
2022-09-09T05:03:18.066Z,100310.52
2022-09-09T05:05:50.218Z,100307.31
2022-09-09T05:08:22.232Z,100308.05
2022-09-09T05:10:54.416Z,100312.33
2022-09-09T05:13:27.478Z,100314.74
2022-09-09T05:15:59.900Z,100318.23
2022-09-09T05:18:32.929Z,100318.70
2022-09-09T05:21:05.811Z,100318.63
2022-09-09T05:23:39.176Z,100324.71
2022-09-09T05:26:17.638Z,100324.79
2022-09-09T05:28:51.038Z,100322.06
2022-09-09T05:31:23.708Z,100324.39
2022-09-09T05:33:56.382Z,100323.48
2022-09-09T05:36:28.828Z,100317.98
2022-09-09T05:39:02.399Z,100320.60
2022-09-09T05:41:35.936Z,100329.80
2022-09-09T05:44:09.407Z,100329.07
2022-09-09T05:46:45.846Z,100326.70
2022-09-09T05:49:19.169Z,100329.66
2022-09-09T05:51:52.070Z,100331.00
2022-09-09T05:54:25.347Z,100327.61
2022-09-09T05:56:58.434Z,100332.17
2022-09-09T05:59:33.270Z,100329.58
2022-09-09T06:02:05.620Z,100331.80
2022-09-09T06:04:41.039Z,100325.77
2022-09-09T06:07:15.554Z,100325.13
2022-09-09T06:09:48.330Z,100317.88
2022-09-09T06:12:21.987Z,100312.90
2022-09-09T06:14:54.465Z,100328.02
2022-09-09T06:17:26.472Z,100327.56
2022-09-09T06:19:59.401Z,100327.56
2022-09-09T06:22:32.058Z,100332.20
2022-09-09T06:25:05.112Z,100332.15
2022-09-09T06:27:37.391Z,100332.52
2022-09-09T06:30:12.389Z,100330.46
2022-09-09T06:32:44.663Z,100321.58
2022-09-09T06:35:17.908Z,100337.55
2022-09-09T06:37:50.431Z,100343.31
2022-09-09T06:40:23.333Z,100340.62
2022-09-09T06:42:55.751Z,100347.41
2022-09-09T06:45:40.249Z,100350.66
2022-09-09T06:48:14.151Z,100345.28
2022-09-09T06:50:46.222Z,100341.27
2022-09-09T06:53:21.181Z,100339.77
2022-09-09T06:55:53.995Z,100339.73
2022-09-09T06:58:26.540Z,100337.23
2022-09-09T07:01:07.653Z,100342.04
2022-09-09T07:03:39.994Z,100341.27
2022-09-09T07:06:16.268Z,100337.33
2022-09-09T07:08:56.439Z,100344.00
2022-09-09T07:11:33.541Z,100336.83
2022-09-09T07:14:05.948Z,100343.26
2022-09-09T07:16:38.472Z,100338.32
2022-09-09T07:19:10.916Z,100339.77
2022-09-09T07:21:44.588Z,100340.23
2022-09-09T07:24:18.655Z,100335.02
2022-09-09T07:26:53.183Z,100336.05
2022-09-09T07:29:25.460Z,100338.44
2022-09-09T07:31:57.948Z,100328.27
2022-09-09T07:34:32.977Z,100344.90
2022-09-09T07:37:05.310Z,100339.14
2022-09-09T07:39:38.483Z,100340.49
2022-09-09T07:42:12.278Z,100342.83
2022-09-09T07:44:45.231Z,100349.84
2022-09-09T07:47:19.913Z,100343.43
2022-09-09T07:49:55.239Z,100345.00
2022-09-09T07:52:31.210Z,100349.15
2022-09-09T07:55:07.338Z,100348.66
2022-09-09T07:57:39.844Z,100353.30
2022-09-09T08:00:16.107Z,100356.19
2022-09-09T08:02:49.920Z,100356.77
2022-09-09T08:05:23.385Z,100358.25
2022-09-09T08:07:56.427Z,100356.75
2022-09-09T08:10:28.989Z,100361.16
2022-09-09T08:13:17.328Z,100357.82
2022-09-09T08:15:52.253Z,100364.73
2022-09-09T08:18:25.026Z,100367.33
2022-09-09T08:20:57.242Z,100360.21
2022-09-09T08:23:30.163Z,100370.92
2022-09-09T08:26:10.190Z,100368.18
2022-09-09T08:28:46.311Z,100369.94
2022-09-09T08:31:20.952Z,100348.59
2022-09-09T08:33:53.925Z,100375.58
2022-09-09T08:36:28.277Z,100372.30
2022-09-09T08:39:02.061Z,100373.75
2022-09-09T08:42:06.333Z,100362.52
2022-09-09T08:44:52.173Z,100374.68
2022-09-09T08:47:34.316Z,100382.28
2022-09-09T08:50:22.738Z,100378.40
2022-09-09T08:53:01.686Z,100379.89
2022-09-09T08:55:42.547Z,100379.20
2022-09-09T08:58:19.033Z,100376.30
2022-09-09T09:01:28.150Z,100381.98
2022-09-09T09:04:09.996Z,100378.49
2022-09-09T09:06:56.211Z,100376.23
2022-09-09T09:09:35.395Z,100376.26
2022-09-09T09:12:19.414Z,100382.65
2022-09-09T09:14:52.129Z,100372.38
2022-09-09T09:17:29.043Z,100385.23
2022-09-09T09:20:01.794Z,100384.96
2022-09-09T09:22:41.428Z,100381.28
2022-09-09T09:25:20.089Z,100380.20
2022-09-09T09:28:01.748Z,100382.48
2022-09-09T09:30:42.695Z,100385.67
2022-09-09T09:33:23.929Z,100382.75
2022-09-09T09:35:56.448Z,100388.00
2022-09-09T09:41:33.097Z,100389.57
2022-09-09T09:44:06.378Z,100395.23
2022-09-09T09:46:38.698Z,100396.54
2022-09-09T09:49:16.990Z,100391.56
2022-09-09T09:51:50.245Z,100391.27
2022-09-09T09:54:30.015Z,100393.55
2022-09-09T09:57:14.333Z,100391.30
2022-09-09T09:59:48.226Z,100393.15
2022-09-09T10:02:28.448Z,100396.96
2022-09-09T10:05:15.445Z,100395.80
2022-09-09T10:08:02.389Z,100393.55
2022-09-09T10:10:49.400Z,100384.03
2022-09-09T10:13:28.234Z,100399.16
2022-09-09T10:16:11.950Z,100397.70
2022-09-09T10:18:57.095Z,100394.66
2022-09-09T10:21:52.458Z,100398.78
2022-09-09T10:24:41.153Z,100401.42
2022-09-09T10:27:22.469Z,100405.27
2022-09-09T10:30:09.851Z,100406.71
2022-09-09T10:32:48.460Z,100407.06
2022-09-09T10:35:31.352Z,100409.95
2022-09-09T10:38:18.877Z,100416.23
2022-09-09T10:41:09.432Z,100415.82
2022-09-09T10:44:01.731Z,100416.86
2022-09-09T10:46:47.199Z,100419.41
2022-09-09T10:49:34.338Z,100389.68
2022-09-09T10:52:17.454Z,100413.13
2022-09-09T10:54:59.186Z,100413.26
2022-09-09T10:57:37.643Z,100407.77
2022-09-09T11:00:20.502Z,100407.59
2022-09-09T11:02:57.789Z,100410.62
2022-09-09T11:05:36.911Z,100416.73
2022-09-09T11:08:13.194Z,100415.08
2022-09-09T11:10:53.659Z,100412.88
2022-09-09T11:13:32.683Z,100414.13
2022-09-09T11:16:21.948Z,100411.66
2022-09-09T11:18:57.663Z,100407.55
2022-09-09T11:21:36.798Z,100412.63
2022-09-09T11:24:17.581Z,100406.20
2022-09-09T11:26:55.240Z,100413.42
2022-09-09T11:30:04.507Z,100408.55
2022-09-09T11:33:03.218Z,100411.35
2022-09-09T11:35:46.646Z,100411.44
2022-09-09T11:38:26.836Z,100418.92
2022-09-09T11:41:01.456Z,100413.87
2022-09-09T11:43:36.203Z,100417.08
2022-09-09T11:46:08.914Z,100416.43
2022-09-09T11:48:45.550Z,100412.66
2022-09-09T11:51:30.818Z,100418.27
2022-09-09T11:54:03.709Z,100414.91
2022-09-09T11:56:45.750Z,100413.26
2022-09-09T11:59:26.830Z,100405.19
2022-09-09T12:02:02.740Z,100397.79
2022-09-09T12:04:40.820Z,100406.56
2022-09-09T12:07:34.941Z,100401.30
2022-09-09T12:10:26.236Z,100395.87
2022-09-09T12:13:10.301Z,100390.71
2022-09-09T12:15:51.880Z,100385.50
2022-09-09T12:18:28.405Z,100386.77
2022-09-09T12:21:10.130Z,100388.27
2022-09-09T12:23:50.676Z,100388.63
2022-09-09T12:26:34.973Z,100383.04
2022-09-09T12:29:21.734Z,100377.59
2022-09-09T12:32:02.418Z,100380.80
2022-09-09T12:34:40.899Z,100381.06
2022-09-09T12:37:26.657Z,100377.64
2022-09-09T12:40:00.716Z,100384.58
2022-09-09T12:42:36.856Z,100385.15
2022-09-09T12:45:22.033Z,100381.11
2022-09-09T12:47:57.697Z,100378.88
2022-09-09T12:50:32.301Z,100377.38
2022-09-09T12:53:09.458Z,100373.06
2022-09-09T12:55:51.702Z,100372.45
2022-09-09T12:58:25.243Z,100372.21
2022-09-09T13:00:58.627Z,100373.58
2022-09-09T13:03:31.498Z,100366.73
2022-09-09T13:06:16.718Z,100369.16
2022-09-09T13:08:49.257Z,100372.95
2022-09-09T13:11:26.769Z,100360.02
2022-09-09T13:14:00.971Z,100379.49
2022-09-09T13:16:39.066Z,100379.64
2022-09-09T13:19:18.799Z,100376.78
2022-09-09T13:21:51.742Z,100377.14
2022-09-09T13:24:32.452Z,100373.94
2022-09-09T13:27:07.403Z,100378.16
2022-09-09T13:29:41.601Z,100379.46
2022-09-09T13:32:20.876Z,100380.77
2022-09-09T13:34:56.948Z,100379.73
2022-09-09T13:37:35.974Z,100374.50
2022-09-09T13:40:19.429Z,100369.73
2022-09-09T13:42:57.343Z,100369.96
2022-09-09T13:45:30.427Z,100374.86
2022-09-09T13:48:13.051Z,100363.60
2022-09-09T13:50:55.681Z,100375.97
2022-09-09T13:53:28.021Z,100372.52
2022-09-09T13:56:00.537Z,100370.77
2022-09-09T13:58:32.570Z,100364.05
2022-09-09T14:01:04.695Z,100356.39
2022-09-09T14:03:38.279Z,100357.13
2022-09-09T14:06:11.308Z,100343.25
2022-09-09T14:08:43.541Z,100351.63
2022-09-09T14:11:16.509Z,100344.73
2022-09-09T14:13:50.893Z,100347.59
2022-09-09T14:16:23.082Z,100341.72
2022-09-09T14:18:57.282Z,100358.65
2022-09-09T14:21:35.855Z,100361.76
2022-09-09T14:24:09.088Z,100357.41
2022-09-09T14:26:41.916Z,100357.69
2022-09-09T14:29:14.553Z,100358.45
2022-09-09T14:31:53.179Z,100360.44
2022-09-09T14:34:27.780Z,100357.27
2022-09-09T14:37:00.131Z,100349.81
2022-09-09T14:39:38.319Z,100353.06
2022-09-09T14:42:13.070Z,100349.27
2022-09-09T14:44:45.476Z,100352.57
2022-09-09T14:47:17.846Z,100350.70
2022-09-09T14:49:50.723Z,100353.16
2022-09-09T14:52:22.894Z,100349.92
2022-09-09T14:54:55.171Z,100350.94
2022-09-09T14:57:27.735Z,100348.57
2022-09-09T15:00:00.739Z,100340.50
2022-09-09T15:02:33.038Z,100345.77
2022-09-09T15:05:05.544Z,100336.77
2022-09-09T15:07:38.315Z,100347.79
2022-09-09T15:10:12.249Z,100342.95
2022-09-09T15:12:44.681Z,100337.27
2022-09-09T15:15:17.275Z,100342.37
2022-09-09T15:17:49.345Z,100340.38
2022-09-09T15:20:21.520Z,100334.21
2022-09-09T15:22:53.993Z,100331.48
2022-09-09T15:25:26.315Z,100330.40
2022-09-09T15:27:58.570Z,100329.60
2022-09-09T15:30:31.247Z,100332.93
2022-09-09T15:33:03.488Z,100334.90
2022-09-09T15:35:35.967Z,100331.06
2022-09-09T15:38:08.146Z,100328.08
2022-09-09T15:40:40.494Z,100323.20
2022-09-09T15:43:14.129Z,100323.09
2022-09-09T15:45:48.105Z,100331.77
2022-09-09T15:48:21.902Z,100335.99
2022-09-09T15:51:19.437Z,100337.20
2022-09-09T15:54:01.233Z,100332.84
2022-09-09T15:56:35.924Z,100330.48
2022-09-09T15:59:10.968Z,100335.41
2022-09-09T16:01:44.222Z,100331.21
2022-09-09T16:04:24.148Z,100316.95
2022-09-09T16:06:58.656Z,100330.46
2022-09-09T16:09:32.569Z,100331.64
2022-09-09T16:12:10.759Z,100337.34
2022-09-09T16:14:43.426Z,100331.09
2022-09-09T16:17:16.401Z,100343.30
2022-09-09T16:19:48.711Z,100337.48
2022-09-09T16:22:21.491Z,100337.98
2022-09-09T16:24:53.793Z,100338.55
2022-09-09T16:27:27.237Z,100331.41
2022-09-09T16:29:59.399Z,100333.11
2022-09-09T16:32:31.865Z,100336.13
2022-09-09T16:35:04.660Z,100337.70
2022-09-09T16:37:37.215Z,100339.77
2022-09-09T16:40:13.638Z,100339.88
2022-09-09T16:42:46.516Z,100339.87
2022-09-09T16:45:19.158Z,100340.83
2022-09-09T16:47:51.634Z,100339.91
2022-09-09T16:50:23.872Z,100344.61
2022-09-09T16:52:56.332Z,100326.24
2022-09-09T16:55:28.441Z,100335.50
2022-09-09T16:58:00.737Z,100333.68
2022-09-09T17:00:33.313Z,100334.95
2022-09-09T17:03:06.302Z,100333.02
2022-09-09T17:05:43.677Z,100342.19
2022-09-09T17:08:16.048Z,100345.55
2022-09-09T17:10:48.552Z,100345.17
2022-09-09T17:13:21.566Z,100346.27
2022-09-09T17:15:54.213Z,100342.96
2022-09-09T17:18:29.346Z,100338.25
2022-09-09T17:21:07.654Z,100339.69
2022-09-09T17:23:40.482Z,100344.50
2022-09-09T17:26:15.741Z,100346.48
2022-09-09T17:28:48.142Z,100347.45
2022-09-09T17:31:21.629Z,100351.08
2022-09-09T17:33:54.683Z,100362.48
2022-09-09T17:36:30.066Z,100365.80
2022-09-09T17:39:03.784Z,100368.66
2022-09-09T17:41:37.800Z,100363.30
2022-09-09T17:44:11.345Z,100372.40
2022-09-09T17:46:46.470Z,100372.11
2022-09-09T17:49:20.022Z,100374.34
2022-09-09T17:51:52.823Z,100375.93
2022-09-09T17:54:25.218Z,100369.21
2022-09-09T17:56:58.651Z,100367.25
2022-09-09T17:59:31.457Z,100381.75
2022-09-09T18:02:05.550Z,100382.67
2022-09-09T18:04:39.017Z,100389.02
2022-09-09T18:07:11.132Z,100385.17
2022-09-09T18:09:43.805Z,100383.48
2022-09-09T18:12:16.737Z,100389.98
2022-09-09T18:14:50.914Z,100390.58
2022-09-09T18:17:23.602Z,100393.21
2022-09-09T18:19:56.099Z,100387.62
2022-09-09T18:22:28.771Z,100389.73
2022-09-09T18:25:01.417Z,100389.48
2022-09-09T18:27:33.706Z,100388.80
2022-09-09T18:30:06.776Z,100384.80
2022-09-09T18:32:39.296Z,100379.75
2022-09-09T18:35:11.877Z,100374.97
2022-09-09T18:37:44.468Z,100360.09
2022-09-09T18:40:17.003Z,100372.54
2022-09-09T18:42:51.115Z,100369.14
2022-09-09T18:45:23.795Z,100366.33
2022-09-09T18:47:57.214Z,100363.34
2022-09-09T18:50:29.470Z,100370.02
2022-09-09T18:53:01.502Z,100368.70
2022-09-09T18:55:34.424Z,100369.52
2022-09-09T18:58:07.129Z,100365.91
2022-09-09T19:00:39.437Z,100370.23
2022-09-09T19:03:11.714Z,100371.88
2022-09-09T19:05:44.040Z,100378.17
2022-09-09T19:08:16.809Z,100383.70
2022-09-09T19:10:49.370Z,100381.36
2022-09-09T19:13:21.976Z,100377.79
2022-09-09T19:15:55.132Z,100375.09
2022-09-09T19:18:28.138Z,100378.58
2022-09-09T19:21:09.511Z,100376.14
2022-09-09T19:23:42.584Z,100381.33
2022-09-09T19:26:17.127Z,100382.56
2022-09-09T19:28:50.221Z,100385.11
2022-09-09T19:31:24.033Z,100388.06
2022-09-09T19:33:57.251Z,100389.16
2022-09-09T19:36:29.989Z,100391.41
2022-09-09T19:39:03.396Z,100392.07
2022-09-09T19:41:38.213Z,100393.04
2022-09-09T19:44:09.884Z,100395.98
2022-09-09T19:46:44.785Z,100395.70
2022-09-09T19:49:17.722Z,100392.04
2022-09-09T19:51:50.175Z,100396.89
2022-09-09T19:54:23.149Z,100401.92
2022-09-09T19:56:55.368Z,100400.61
2022-09-09T19:59:28.286Z,100404.14
2022-09-09T20:02:00.582Z,100403.76
2022-09-09T20:04:34.180Z,100403.27
2022-09-09T20:07:06.649Z,100402.80
2022-09-09T20:09:38.720Z,100400.67
2022-09-09T20:12:11.148Z,100405.05
2022-09-09T20:14:43.710Z,100406.76
2022-09-09T20:17:16.428Z,100405.67
2022-09-09T20:19:49.187Z,100401.60
2022-09-09T20:22:21.454Z,100411.10
2022-09-09T20:24:53.650Z,100410.81
2022-09-09T20:27:27.905Z,100410.87
2022-09-09T20:30:00.708Z,100386.27
2022-09-09T20:32:33.333Z,100400.66
2022-09-09T20:35:06.137Z,100415.51
2022-09-09T20:37:40.900Z,100413.40
2022-09-09T20:40:13.525Z,100408.91
2022-09-09T20:42:45.809Z,100409.95
2022-09-09T20:45:18.404Z,100410.77
2022-09-09T20:47:51.038Z,100409.39
2022-09-09T20:50:23.854Z,100401.90
2022-09-09T20:52:56.351Z,100402.73
2022-09-09T20:55:29.236Z,100399.54
2022-09-09T20:58:01.390Z,100391.07
2022-09-09T21:00:34.100Z,100383.55
2022-09-09T21:03:06.747Z,100382.94
2022-09-09T21:05:39.250Z,100386.77
2022-09-09T21:08:11.774Z,100384.80
2022-09-09T21:10:49.052Z,100383.41
2022-09-09T21:13:22.238Z,100389.59
2022-09-09T21:15:55.039Z,100395.39
2022-09-09T21:18:29.355Z,100394.85
2022-09-09T21:21:02.520Z,100395.77
2022-09-09T21:23:35.476Z,100391.83
2022-09-09T21:26:09.861Z,100384.55
2022-09-09T21:28:41.974Z,100382.76
2022-09-09T21:31:17.091Z,100375.23
2022-09-09T21:33:49.625Z,100375.37
2022-09-09T21:36:21.629Z,100371.53
2022-09-09T21:38:54.081Z,100374.56
2022-09-09T21:41:26.377Z,100362.16
2022-09-09T21:43:58.863Z,100374.59
2022-09-09T21:46:31.090Z,100370.96
2022-09-09T21:49:04.177Z,100370.58
2022-09-09T21:51:36.781Z,100372.33
2022-09-09T21:54:09.204Z,100377.77
2022-09-09T21:56:41.344Z,100375.63
2022-09-09T21:59:13.422Z,100373.84
2022-09-09T22:01:48.294Z,100374.39
2022-09-09T22:04:18.939Z,100372.08
2022-09-09T22:06:51.347Z,100372.52
2022-09-09T22:09:23.275Z,100376.15
2022-09-09T22:11:55.350Z,100378.14
2022-09-09T22:14:27.822Z,100380.80
2022-09-09T22:17:00.092Z,100381.61
2022-09-09T22:19:33.441Z,100382.52
2022-09-09T22:22:05.973Z,100384.06
2022-09-09T22:24:38.956Z,100382.36
2022-09-09T22:27:11.664Z,100384.61
2022-09-09T22:29:44.577Z,100397.16
2022-09-09T22:32:17.448Z,100411.86
2022-09-09T22:34:51.255Z,100411.51
2022-09-09T22:37:23.307Z,100406.98
2022-09-09T22:39:55.804Z,100403.99
2022-09-09T22:42:27.857Z,100409.85
2022-09-09T22:45:00.324Z,100410.09
2022-09-09T22:47:33.120Z,100410.11
2022-09-09T22:50:06.263Z,100392.48
2022-09-09T22:52:38.776Z,100400.61
2022-09-09T22:55:11.748Z,100402.44
2022-09-09T22:57:44.120Z,100402.48
2022-09-09T23:00:18.796Z,100399.69
2022-09-09T23:02:51.050Z,100401.05
2022-09-09T23:05:26.091Z,100370.16
2022-09-09T23:07:58.799Z,100386.92
2022-09-09T23:10:32.190Z,100386.17
2022-09-09T23:13:04.166Z,100383.09
2022-09-09T23:15:37.245Z,100384.45
2022-09-09T23:18:10.078Z,100382.98
2022-09-09T23:20:43.176Z,100387.98
2022-09-09T23:23:15.488Z,100384.36
2022-09-09T23:25:49.112Z,100382.73
2022-09-09T23:28:21.360Z,100378.85
2022-09-09T23:30:53.503Z,100371.07
2022-09-09T23:33:26.036Z,100373.54
2022-09-09T23:36:07.875Z,100369.11
2022-09-09T23:38:41.356Z,100365.19
2022-09-09T23:41:15.954Z,100361.95
2022-09-09T23:43:48.005Z,100360.38
2022-09-09T23:46:22.608Z,100366.67
2022-09-09T23:48:57.040Z,100367.69
2022-09-09T23:51:31.208Z,100367.75
2022-09-09T23:54:05.232Z,100370.45
2022-09-09T23:56:39.856Z,100358.77
2022-09-09T23:59:12.238Z,100369.86
